sensor_id;sensor_type;location;lat;lon;timestamp;P1;durP1;ratioP1;P2;durP2;ratioP2
69789;SDS011;57064;52.046;4.800;2022-11-21T00:00:19;111.65;;;35.28;;
69789;SDS011;57064;52.046;4.800;2022-11-21T00:02:46;104.93;;;35.15;;
69789;SDS011;57064;52.046;4.800;2022-11-21T00:05:12;103.65;;;35.03;;
69789;SDS011;57064;52.046;4.800;2022-11-21T00:07:39;102.97;;;34.17;;
69789;SDS011;57064;52.046;4.800;2022-11-21T00:10:05;118.90;;;37.80;;
69789;SDS011;57064;52.046;4.800;2022-11-21T00:12:31;115.82;;;38.58;;
69789;SDS011;57064;52.046;4.800;2022-11-21T00:14:57;137.07;;;39.17;;
69789;SDS011;57064;52.046;4.800;2022-11-21T00:17:23;138.82;;;41.15;;
69789;SDS011;57064;52.046;4.800;2022-11-21T00:19:49;155.15;;;41.83;;
69789;SDS011;57064;52.046;4.800;2022-11-21T00:22:15;149.13;;;41.97;;
69789;SDS011;57064;52.046;4.800;2022-11-21T00:24:41;146.52;;;41.22;;
69789;SDS011;57064;52.046;4.800;2022-11-21T00:27:07;136.43;;;40.03;;
69789;SDS011;57064;52.046;4.800;2022-11-21T00:29:33;130.02;;;40.40;;
69789;SDS011;57064;52.046;4.800;2022-11-21T00:31:59;125.03;;;37.03;;
69789;SDS011;57064;52.046;4.800;2022-11-21T00:34:25;142.05;;;40.45;;
69789;SDS011;57064;52.046;4.800;2022-11-21T00:36:51;156.85;;;42.08;;
69789;SDS011;57064;52.046;4.800;2022-11-21T00:39:17;140.80;;;40.83;;
69789;SDS011;57064;52.046;4.800;2022-11-21T00:41:43;141.60;;;40.22;;
69789;SDS011;57064;52.046;4.800;2022-11-21T00:44:10;142.93;;;39.15;;
69789;SDS011;57064;52.046;4.800;2022-11-21T00:46:36;146.63;;;40.70;;
69789;SDS011;57064;52.046;4.800;2022-11-21T00:49:02;166.68;;;44.72;;
69789;SDS011;57064;52.046;4.800;2022-11-21T00:51:28;152.77;;;43.33;;
69789;SDS011;57064;52.046;4.800;2022-11-21T00:53:54;190.77;;;46.30;;
69789;SDS011;57064;52.046;4.800;2022-11-21T00:56:19;192.52;;;44.92;;
69789;SDS011;57064;52.046;4.800;2022-11-21T00:58:46;165.30;;;45.35;;
69789;SDS011;57064;52.046;4.800;2022-11-21T01:01:12;198.02;;;44.95;;
69789;SDS011;57064;52.046;4.800;2022-11-21T01:03:39;181.32;;;42.92;;
69789;SDS011;57064;52.046;4.800;2022-11-21T01:06:07;190.27;;;43.38;;
69789;SDS011;57064;52.046;4.800;2022-11-21T01:08:35;168.20;;;41.65;;
69789;SDS011;57064;52.046;4.800;2022-11-21T01:11:06;174.55;;;41.75;;
69789;SDS011;57064;52.046;4.800;2022-11-21T01:13:35;264.98;;;48.08;;
69789;SDS011;57064;52.046;4.800;2022-11-21T01:16:12;222.65;;;43.88;;
69789;SDS011;57064;52.046;4.800;2022-11-21T01:18:39;229.00;;;46.00;;
69789;SDS011;57064;52.046;4.800;2022-11-21T01:21:07;213.50;;;46.13;;
69789;SDS011;57064;52.046;4.800;2022-11-21T01:23:37;229.65;;;45.60;;
69789;SDS011;57064;52.046;4.800;2022-11-21T01:26:04;227.43;;;48.20;;
69789;SDS011;57064;52.046;4.800;2022-11-21T01:28:31;271.30;;;51.25;;
69789;SDS011;57064;52.046;4.800;2022-11-21T01:33:34;213.38;;;41.72;;
69789;SDS011;57064;52.046;4.800;2022-11-21T01:39:03;207.23;;;42.90;;
69789;SDS011;57064;52.046;4.800;2022-11-21T01:41:33;172.80;;;41.60;;
69789;SDS011;57064;52.046;4.800;2022-11-21T01:46:45;217.23;;;43.67;;
69789;SDS011;57064;52.046;4.800;2022-11-21T01:51:45;207.68;;;42.90;;
69789;SDS011;57064;52.046;4.800;2022-11-21T01:54:14;165.90;;;41.92;;
69789;SDS011;57064;52.046;4.800;2022-11-21T01:57:07;174.80;;;40.92;;
69789;SDS011;57064;52.046;4.800;2022-11-21T01:59:40;168.45;;;42.90;;
69789;SDS011;57064;52.046;4.800;2022-11-21T02:02:09;228.63;;;44.67;;
69789;SDS011;57064;52.046;4.800;2022-11-21T02:04:37;232.52;;;48.20;;
69789;SDS011;57064;52.046;4.800;2022-11-21T02:07:06;170.27;;;42.60;;
69789;SDS011;57064;52.046;4.800;2022-11-21T02:09:34;175.18;;;40.60;;
69789;SDS011;57064;52.046;4.800;2022-11-21T02:12:07;159.63;;;39.60;;
69789;SDS011;57064;52.046;4.800;2022-11-21T02:14:37;189.07;;;43.00;;
69789;SDS011;57064;52.046;4.800;2022-11-21T02:17:06;197.15;;;42.10;;
69789;SDS011;57064;52.046;4.800;2022-11-21T02:22:16;208.32;;;44.60;;
69789;SDS011;57064;52.046;4.800;2022-11-21T02:25:06;186.38;;;42.08;;
69789;SDS011;57064;52.046;4.800;2022-11-21T02:30:04;198.10;;;41.08;;
69789;SDS011;57064;52.046;4.800;2022-11-21T02:32:34;173.55;;;41.60;;
69789;SDS011;57064;52.046;4.800;2022-11-21T02:35:11;194.40;;;41.00;;
69789;SDS011;57064;52.046;4.800;2022-11-21T02:37:39;208.15;;;42.20;;
69789;SDS011;57064;52.046;4.800;2022-11-21T02:40:07;223.48;;;43.53;;
69789;SDS011;57064;52.046;4.800;2022-11-21T02:42:48;239.60;;;47.17;;
69789;SDS011;57064;52.046;4.800;2022-11-21T02:45:51;213.93;;;43.20;;
69789;SDS011;57064;52.046;4.800;2022-11-21T02:48:17;193.23;;;42.03;;
69789;SDS011;57064;52.046;4.800;2022-11-21T02:50:44;184.98;;;39.28;;
69789;SDS011;57064;52.046;4.800;2022-11-21T02:53:12;158.45;;;39.17;;
69789;SDS011;57064;52.046;4.800;2022-11-21T02:55:40;193.73;;;42.10;;
69789;SDS011;57064;52.046;4.800;2022-11-21T02:58:06;198.45;;;40.53;;
69789;SDS011;57064;52.046;4.800;2022-11-21T03:00:33;170.07;;;40.00;;
69789;SDS011;57064;52.046;4.800;2022-11-21T03:03:02;199.68;;;41.70;;
69789;SDS011;57064;52.046;4.800;2022-11-21T03:05:28;176.75;;;39.35;;
69789;SDS011;57064;52.046;4.800;2022-11-21T03:07:54;169.68;;;37.05;;
69789;SDS011;57064;52.046;4.800;2022-11-21T03:10:20;157.93;;;38.40;;
69789;SDS011;57064;52.046;4.800;2022-11-21T03:12:46;170.88;;;41.28;;
69789;SDS011;57064;52.046;4.800;2022-11-21T03:15:13;203.57;;;45.25;;
69789;SDS011;57064;52.046;4.800;2022-11-21T03:17:40;169.15;;;40.75;;
69789;SDS011;57064;52.046;4.800;2022-11-21T03:20:07;189.73;;;42.63;;
69789;SDS011;57064;52.046;4.800;2022-11-21T03:22:34;215.35;;;44.30;;
69789;SDS011;57064;52.046;4.800;2022-11-21T03:25:00;223.02;;;42.80;;
69789;SDS011;57064;52.046;4.800;2022-11-21T03:27:26;218.75;;;42.22;;
69789;SDS011;57064;52.046;4.800;2022-11-21T03:29:52;203.55;;;45.13;;
69789;SDS011;57064;52.046;4.800;2022-11-21T03:32:18;202.32;;;42.47;;
69789;SDS011;57064;52.046;4.800;2022-11-21T03:34:44;191.98;;;40.90;;
69789;SDS011;57064;52.046;4.800;2022-11-21T03:37:10;218.73;;;43.17;;
69789;SDS011;57064;52.046;4.800;2022-11-21T03:39:36;214.30;;;41.33;;
69789;SDS011;57064;52.046;4.800;2022-11-21T03:42:02;227.23;;;42.58;;
69789;SDS011;57064;52.046;4.800;2022-11-21T03:44:28;171.82;;;37.45;;
69789;SDS011;57064;52.046;4.800;2022-11-21T03:46:54;218.23;;;40.80;;
69789;SDS011;57064;52.046;4.800;2022-11-21T03:49:20;193.88;;;39.85;;
69789;SDS011;57064;52.046;4.800;2022-11-21T03:51:46;200.48;;;38.47;;
69789;SDS011;57064;52.046;4.800;2022-11-21T03:54:12;158.18;;;38.75;;
69789;SDS011;57064;52.046;4.800;2022-11-21T03:56:39;217.90;;;42.78;;
69789;SDS011;57064;52.046;4.800;2022-11-21T03:59:05;188.50;;;39.75;;
69789;SDS011;57064;52.046;4.800;2022-11-21T04:01:31;188.60;;;41.40;;
69789;SDS011;57064;52.046;4.800;2022-11-21T04:03:58;164.77;;;37.38;;
69789;SDS011;57064;52.046;4.800;2022-11-21T04:06:24;145.57;;;34.75;;
69789;SDS011;57064;52.046;4.800;2022-11-21T04:08:50;176.70;;;37.65;;
69789;SDS011;57064;52.046;4.800;2022-11-21T04:11:16;154.93;;;35.97;;
69789;SDS011;57064;52.046;4.800;2022-11-21T04:13:43;183.23;;;37.67;;
69789;SDS011;57064;52.046;4.800;2022-11-21T04:16:09;202.52;;;40.22;;
69789;SDS011;57064;52.046;4.800;2022-11-21T04:18:35;202.50;;;40.65;;
69789;SDS011;57064;52.046;4.800;2022-11-21T04:21:02;245.82;;;40.90;;
69789;SDS011;57064;52.046;4.800;2022-11-21T04:23:30;172.23;;;37.60;;
69789;SDS011;57064;52.046;4.800;2022-11-21T04:25:57;139.90;;;36.95;;
69789;SDS011;57064;52.046;4.800;2022-11-21T04:28:23;140.38;;;34.85;;
69789;SDS011;57064;52.046;4.800;2022-11-21T04:30:50;156.95;;;37.03;;
69789;SDS011;57064;52.046;4.800;2022-11-21T04:33:17;158.30;;;37.42;;
69789;SDS011;57064;52.046;4.800;2022-11-21T04:35:43;218.10;;;44.47;;
69789;SDS011;57064;52.046;4.800;2022-11-21T04:38:10;217.25;;;46.25;;
69789;SDS011;57064;52.046;4.800;2022-11-21T04:40:37;199.35;;;43.83;;
69789;SDS011;57064;52.046;4.800;2022-11-21T04:43:04;160.82;;;40.35;;
69789;SDS011;57064;52.046;4.800;2022-11-21T04:45:30;161.35;;;37.40;;
69789;SDS011;57064;52.046;4.800;2022-11-21T04:47:56;170.70;;;41.28;;
69789;SDS011;57064;52.046;4.800;2022-11-21T04:50:22;165.13;;;38.95;;
69789;SDS011;57064;52.046;4.800;2022-11-21T04:52:49;194.48;;;40.65;;
69789;SDS011;57064;52.046;4.800;2022-11-21T04:55:20;171.43;;;39.22;;
69789;SDS011;57064;52.046;4.800;2022-11-21T04:57:47;208.55;;;41.40;;
69789;SDS011;57064;52.046;4.800;2022-11-21T05:00:14;276.65;;;45.85;;
69789;SDS011;57064;52.046;4.800;2022-11-21T05:02:41;246.13;;;41.63;;
69789;SDS011;57064;52.046;4.800;2022-11-21T05:05:08;271.88;;;45.22;;
69789;SDS011;57064;52.046;4.800;2022-11-21T05:07:34;243.73;;;43.80;;
69789;SDS011;57064;52.046;4.800;2022-11-21T05:10:00;200.93;;;37.80;;
69789;SDS011;57064;52.046;4.800;2022-11-21T05:12:27;265.50;;;46.88;;
69789;SDS011;57064;52.046;4.800;2022-11-21T05:15:12;306.23;;;53.25;;
69789;SDS011;57064;52.046;4.800;2022-11-21T05:17:38;238.27;;;45.10;;
69789;SDS011;57064;52.046;4.800;2022-11-21T05:20:04;277.20;;;46.72;;
69789;SDS011;57064;52.046;4.800;2022-11-21T05:22:30;297.83;;;50.20;;
69789;SDS011;57064;52.046;4.800;2022-11-21T05:24:56;267.08;;;46.75;;
69789;SDS011;57064;52.046;4.800;2022-11-21T05:27:22;305.10;;;52.05;;
69789;SDS011;57064;52.046;4.800;2022-11-21T05:29:48;322.30;;;51.50;;
69789;SDS011;57064;52.046;4.800;2022-11-21T05:32:14;324.60;;;47.17;;
69789;SDS011;57064;52.046;4.800;2022-11-21T05:34:40;271.65;;;43.85;;
69789;SDS011;57064;52.046;4.800;2022-11-21T05:37:06;270.15;;;44.63;;
69789;SDS011;57064;52.046;4.800;2022-11-21T05:39:32;267.55;;;43.42;;
69789;SDS011;57064;52.046;4.800;2022-11-21T05:41:58;226.55;;;42.55;;
69789;SDS011;57064;52.046;4.800;2022-11-21T05:44:24;231.27;;;42.83;;
69789;SDS011;57064;52.046;4.800;2022-11-21T05:46:50;223.70;;;40.72;;
69789;SDS011;57064;52.046;4.800;2022-11-21T05:49:16;228.68;;;39.78;;
69789;SDS011;57064;52.046;4.800;2022-11-21T05:51:42;225.63;;;42.10;;
69789;SDS011;57064;52.046;4.800;2022-11-21T05:54:15;202.07;;;39.83;;
69789;SDS011;57064;52.046;4.800;2022-11-21T05:59:07;174.00;;;34.17;;
69789;SDS011;57064;52.046;4.800;2022-11-21T06:01:35;233.90;;;38.90;;
69789;SDS011;57064;52.046;4.800;2022-11-21T06:04:20;198.27;;;40.15;;
69789;SDS011;57064;52.046;4.800;2022-11-21T06:06:46;241.45;;;41.50;;
69789;SDS011;57064;52.046;4.800;2022-11-21T06:09:12;174.13;;;38.33;;
69789;SDS011;57064;52.046;4.800;2022-11-21T06:11:38;227.82;;;38.05;;
69789;SDS011;57064;52.046;4.800;2022-11-21T06:14:04;140.77;;;33.70;;
69789;SDS011;57064;52.046;4.800;2022-11-21T06:16:30;146.45;;;34.38;;
69789;SDS011;57064;52.046;4.800;2022-11-21T06:18:56;191.82;;;39.08;;
69789;SDS011;57064;52.046;4.800;2022-11-21T06:21:26;164.60;;;36.28;;
69789;SDS011;57064;52.046;4.800;2022-11-21T06:23:54;143.98;;;34.70;;
69789;SDS011;57064;52.046;4.800;2022-11-21T06:26:22;186.85;;;37.42;;
69789;SDS011;57064;52.046;4.800;2022-11-21T06:28:50;139.48;;;34.47;;
69789;SDS011;57064;52.046;4.800;2022-11-21T06:31:17;168.82;;;34.75;;
69789;SDS011;57064;52.046;4.800;2022-11-21T06:33:45;172.18;;;34.55;;
69789;SDS011;57064;52.046;4.800;2022-11-21T06:36:12;175.38;;;36.55;;
69789;SDS011;57064;52.046;4.800;2022-11-21T06:38:39;183.60;;;35.65;;
69789;SDS011;57064;52.046;4.800;2022-11-21T06:41:16;166.82;;;35.95;;
69789;SDS011;57064;52.046;4.800;2022-11-21T06:43:43;160.13;;;35.28;;
69789;SDS011;57064;52.046;4.800;2022-11-21T06:46:10;175.05;;;37.85;;
69789;SDS011;57064;52.046;4.800;2022-11-21T06:48:37;179.10;;;37.20;;
69789;SDS011;57064;52.046;4.800;2022-11-21T06:51:04;139.07;;;34.63;;
69789;SDS011;57064;52.046;4.800;2022-11-21T06:53:31;148.55;;;37.10;;
69789;SDS011;57064;52.046;4.800;2022-11-21T06:56:00;154.70;;;36.30;;
69789;SDS011;57064;52.046;4.800;2022-11-21T06:58:27;146.05;;;35.65;;
69789;SDS011;57064;52.046;4.800;2022-11-21T07:00:54;185.20;;;38.67;;
69789;SDS011;57064;52.046;4.800;2022-11-21T07:03:20;168.85;;;37.38;;
69789;SDS011;57064;52.046;4.800;2022-11-21T07:05:46;177.27;;;35.45;;
69789;SDS011;57064;52.046;4.800;2022-11-21T07:08:13;155.98;;;34.97;;
69789;SDS011;57064;52.046;4.800;2022-11-21T07:10:39;145.10;;;35.45;;
69789;SDS011;57064;52.046;4.800;2022-11-21T07:13:05;123.90;;;32.55;;
69789;SDS011;57064;52.046;4.800;2022-11-21T07:15:47;129.23;;;32.58;;
69789;SDS011;57064;52.046;4.800;2022-11-21T07:18:18;118.22;;;30.13;;
69789;SDS011;57064;52.046;4.800;2022-11-21T07:20:46;106.40;;;30.23;;
69789;SDS011;57064;52.046;4.800;2022-11-21T07:23:12;133.63;;;32.90;;
69789;SDS011;57064;52.046;4.800;2022-11-21T07:25:39;116.22;;;32.28;;
69789;SDS011;57064;52.046;4.800;2022-11-21T07:28:05;117.72;;;30.10;;
69789;SDS011;57064;52.046;4.800;2022-11-21T07:30:32;114.22;;;32.55;;
69789;SDS011;57064;52.046;4.800;2022-11-21T07:33:00;113.18;;;28.77;;
69789;SDS011;57064;52.046;4.800;2022-11-21T07:35:28;124.50;;;33.25;;
69789;SDS011;57064;52.046;4.800;2022-11-21T07:37:54;88.57;;;29.48;;
69789;SDS011;57064;52.046;4.800;2022-11-21T07:40:20;101.65;;;29.92;;
69789;SDS011;57064;52.046;4.800;2022-11-21T07:42:46;89.65;;;29.40;;
69789;SDS011;57064;52.046;4.800;2022-11-21T07:45:13;93.07;;;28.92;;
69789;SDS011;57064;52.046;4.800;2022-11-21T07:47:39;92.68;;;29.55;;
69789;SDS011;57064;52.046;4.800;2022-11-21T07:50:06;100.43;;;27.75;;
69789;SDS011;57064;52.046;4.800;2022-11-21T07:52:34;98.32;;;32.25;;
69789;SDS011;57064;52.046;4.800;2022-11-21T07:55:00;97.65;;;27.15;;
69789;SDS011;57064;52.046;4.800;2022-11-21T07:57:27;104.13;;;29.33;;
69789;SDS011;57064;52.046;4.800;2022-11-21T07:59:54;103.60;;;30.48;;
69789;SDS011;57064;52.046;4.800;2022-11-21T08:02:21;84.03;;;27.67;;
69789;SDS011;57064;52.046;4.800;2022-11-21T08:04:51;80.53;;;25.80;;
69789;SDS011;57064;52.046;4.800;2022-11-21T08:07:18;88.13;;;27.58;;
69789;SDS011;57064;52.046;4.800;2022-11-21T08:09:45;90.05;;;26.63;;
69789;SDS011;57064;52.046;4.800;2022-11-21T08:12:12;87.35;;;28.70;;
69789;SDS011;57064;52.046;4.800;2022-11-21T08:14:38;94.97;;;28.90;;
69789;SDS011;57064;52.046;4.800;2022-11-21T08:17:04;94.40;;;28.02;;
69789;SDS011;57064;52.046;4.800;2022-11-21T08:19:31;95.00;;;28.27;;
69789;SDS011;57064;52.046;4.800;2022-11-21T08:21:57;111.05;;;30.13;;
69789;SDS011;57064;52.046;4.800;2022-11-21T08:24:24;118.55;;;28.45;;
69789;SDS011;57064;52.046;4.800;2022-11-21T08:26:50;117.38;;;30.13;;
69789;SDS011;57064;52.046;4.800;2022-11-21T08:29:17;131.35;;;30.85;;
69789;SDS011;57064;52.046;4.800;2022-11-21T08:31:43;131.35;;;29.40;;
69789;SDS011;57064;52.046;4.800;2022-11-21T08:34:09;139.23;;;31.05;;
69789;SDS011;57064;52.046;4.800;2022-11-21T08:36:36;157.13;;;31.10;;
69789;SDS011;57064;52.046;4.800;2022-11-21T08:39:03;112.28;;;28.45;;
69789;SDS011;57064;52.046;4.800;2022-11-21T08:41:29;139.85;;;31.30;;
69789;SDS011;57064;52.046;4.800;2022-11-21T08:44:14;171.68;;;37.03;;
69789;SDS011;57064;52.046;4.800;2022-11-21T08:46:40;195.63;;;33.13;;
69789;SDS011;57064;52.046;4.800;2022-11-21T08:49:06;121.30;;;30.15;;
69789;SDS011;57064;52.046;4.800;2022-11-21T08:51:33;165.82;;;33.63;;
69789;SDS011;57064;52.046;4.800;2022-11-21T08:53:59;124.38;;;29.55;;
69789;SDS011;57064;52.046;4.800;2022-11-21T08:56:26;143.45;;;30.23;;
69789;SDS011;57064;52.046;4.800;2022-11-21T08:58:52;110.50;;;28.42;;
69789;SDS011;57064;52.046;4.800;2022-11-21T09:01:18;120.82;;;30.92;;
69789;SDS011;57064;52.046;4.800;2022-11-21T09:03:44;95.25;;;29.42;;
69789;SDS011;57064;52.046;4.800;2022-11-21T09:06:10;93.53;;;27.92;;
69789;SDS011;57064;52.046;4.800;2022-11-21T09:08:37;101.18;;;28.70;;
69789;SDS011;57064;52.046;4.800;2022-11-21T09:11:04;92.15;;;29.85;;
69789;SDS011;57064;52.046;4.800;2022-11-21T09:13:32;103.88;;;28.95;;
69789;SDS011;57064;52.046;4.800;2022-11-21T09:15:58;76.53;;;29.10;;
69789;SDS011;57064;52.046;4.800;2022-11-21T09:18:43;80.15;;;28.98;;
69789;SDS011;57064;52.046;4.800;2022-11-21T09:21:13;85.88;;;28.15;;
69789;SDS011;57064;52.046;4.800;2022-11-21T09:23:40;85.53;;;29.55;;
69789;SDS011;57064;52.046;4.800;2022-11-21T09:26:06;86.00;;;28.30;;
69789;SDS011;57064;52.046;4.800;2022-11-21T09:28:32;77.43;;;27.13;;
69789;SDS011;57064;52.046;4.800;2022-11-21T09:31:00;70.40;;;26.08;;
69789;SDS011;57064;52.046;4.800;2022-11-21T09:33:27;64.50;;;24.52;;
69789;SDS011;57064;52.046;4.800;2022-11-21T09:35:53;61.45;;;24.42;;
69789;SDS011;57064;52.046;4.800;2022-11-21T09:38:22;60.40;;;24.10;;
69789;SDS011;57064;52.046;4.800;2022-11-21T09:40:48;59.10;;;24.38;;
69789;SDS011;57064;52.046;4.800;2022-11-21T09:43:20;67.22;;;24.42;;
69789;SDS011;57064;52.046;4.800;2022-11-21T09:45:58;65.75;;;24.33;;
69789;SDS011;57064;52.046;4.800;2022-11-21T09:51:22;55.75;;;22.67;;
69789;SDS011;57064;52.046;4.800;2022-11-21T09:56:21;54.58;;;22.38;;
69789;SDS011;57064;52.046;4.800;2022-11-21T09:58:50;49.20;;;22.30;;
69789;SDS011;57064;52.046;4.800;2022-11-21T10:01:38;53.47;;;23.42;;
69789;SDS011;57064;52.046;4.800;2022-11-21T10:04:04;49.25;;;21.95;;
69789;SDS011;57064;52.046;4.800;2022-11-21T10:06:31;51.13;;;21.40;;
69789;SDS011;57064;52.046;4.800;2022-11-21T10:14:50;45.83;;;21.77;;
69789;SDS011;57064;52.046;4.800;2022-11-21T10:20:53;42.70;;;20.83;;
69789;SDS011;57064;52.046;4.800;2022-11-21T10:23:57;52.10;;;21.30;;
69789;SDS011;57064;52.046;4.800;2022-11-21T10:29:19;53.45;;;21.20;;
69789;SDS011;57064;52.046;4.800;2022-11-21T10:31:58;49.88;;;20.15;;
69789;SDS011;57064;52.046;4.800;2022-11-21T10:34:34;45.17;;;20.20;;
69789;SDS011;57064;52.046;4.800;2022-11-21T10:37:03;49.90;;;21.05;;
69789;SDS011;57064;52.046;4.800;2022-11-21T10:39:45;44.78;;;20.95;;
69789;SDS011;57064;52.046;4.800;2022-11-21T10:45:17;43.58;;;21.38;;
69789;SDS011;57064;52.046;4.800;2022-11-21T10:47:48;54.85;;;21.13;;
69789;SDS011;57064;52.046;4.800;2022-11-21T10:50:23;43.95;;;20.35;;
69789;SDS011;57064;52.046;4.800;2022-11-21T10:53:18;46.33;;;21.23;;
69789;SDS011;57064;52.046;4.800;2022-11-21T10:56:17;54.38;;;22.95;;
69789;SDS011;57064;52.046;4.800;2022-11-21T11:01:20;51.28;;;23.38;;
69789;SDS011;57064;52.046;4.800;2022-11-21T11:03:47;57.45;;;23.58;;
69789;SDS011;57064;52.046;4.800;2022-11-21T11:06:40;55.60;;;22.95;;
69789;SDS011;57064;52.046;4.800;2022-11-21T11:09:25;45.67;;;21.35;;
69789;SDS011;57064;52.046;4.800;2022-11-21T11:12:15;56.22;;;22.50;;
69789;SDS011;57064;52.046;4.800;2022-11-21T11:14:48;47.17;;;21.48;;
69789;SDS011;57064;52.046;4.800;2022-11-21T11:17:26;55.65;;;23.27;;
69789;SDS011;57064;52.046;4.800;2022-11-21T11:20:27;46.35;;;20.75;;
69789;SDS011;57064;52.046;4.800;2022-11-21T11:25:57;45.38;;;20.13;;
69789;SDS011;57064;52.046;4.800;2022-11-21T11:28:24;50.05;;;21.00;;
69789;SDS011;57064;52.046;4.800;2022-11-21T11:30:57;43.42;;;19.30;;
69789;SDS011;57064;52.046;4.800;2022-11-21T11:33:31;41.90;;;20.60;;
69789;SDS011;57064;52.046;4.800;2022-11-21T11:38:51;40.72;;;18.95;;
69789;SDS011;57064;52.046;4.800;2022-11-21T11:47:54;40.33;;;17.27;;
69789;SDS011;57064;52.046;4.800;2022-11-21T11:50:36;32.35;;;15.35;;
69789;SDS011;57064;52.046;4.800;2022-11-21T11:53:14;35.05;;;14.25;;
69789;SDS011;57064;52.046;4.800;2022-11-21T11:58:35;29.17;;;14.57;;
69789;SDS011;57064;52.046;4.800;2022-11-21T12:01:17;27.90;;;12.93;;
69789;SDS011;57064;52.046;4.800;2022-11-21T12:04:20;28.08;;;13.00;;
69789;SDS011;57064;52.046;4.800;2022-11-21T12:06:54;30.20;;;12.50;;
69789;SDS011;57064;52.046;4.800;2022-11-21T12:17:50;18.55;;;8.63;;
69789;SDS011;57064;52.046;4.800;2022-11-21T12:20:23;18.60;;;8.98;;
69789;SDS011;57064;52.046;4.800;2022-11-21T12:22:58;15.43;;;8.55;;
69789;SDS011;57064;52.046;4.800;2022-11-21T12:25:27;15.98;;;8.43;;
69789;SDS011;57064;52.046;4.800;2022-11-21T12:28:00;19.65;;;8.35;;
69789;SDS011;57064;52.046;4.800;2022-11-21T12:38:40;19.33;;;7.25;;
69789;SDS011;57064;52.046;4.800;2022-11-21T12:52:13;9.23;;;5.03;;
69789;SDS011;57064;52.046;4.800;2022-11-21T12:57:55;17.17;;;6.88;;
69789;SDS011;57064;52.046;4.800;2022-11-21T13:05:39;8.05;;;3.15;;
69789;SDS011;57064;52.046;4.800;2022-11-21T13:08:10;16.13;;;4.20;;
69789;SDS011;57064;52.046;4.800;2022-11-21T13:10:41;8.82;;;3.67;;
69789;SDS011;57064;52.046;4.800;2022-11-21T13:13:36;11.18;;;4.22;;
69789;SDS011;57064;52.046;4.800;2022-11-21T13:16:07;6.95;;;3.05;;
69789;SDS011;57064;52.046;4.800;2022-11-21T13:18:41;7.35;;;3.30;;
69789;SDS011;57064;52.046;4.800;2022-11-21T13:24:08;7.35;;;3.80;;
69789;SDS011;57064;52.046;4.800;2022-11-21T13:29:12;6.82;;;3.22;;
69789;SDS011;57064;52.046;4.800;2022-11-21T13:31:39;10.15;;;3.65;;
69789;SDS011;57064;52.046;4.800;2022-11-21T13:37:00;10.40;;;3.17;;
69789;SDS011;57064;52.046;4.800;2022-11-21T13:39:28;13.75;;;3.10;;
69789;SDS011;57064;52.046;4.800;2022-11-21T13:44:44;6.90;;;2.80;;
69789;SDS011;57064;52.046;4.800;2022-11-21T13:47:58;6.55;;;3.90;;
69789;SDS011;57064;52.046;4.800;2022-11-21T14:01:17;7.80;;;4.18;;
69789;SDS011;57064;52.046;4.800;2022-11-21T14:06:43;7.78;;;4.03;;
69789;SDS011;57064;52.046;4.800;2022-11-21T14:14:23;12.93;;;4.05;;
69789;SDS011;57064;52.046;4.800;2022-11-21T14:17:40;8.18;;;4.10;;
69789;SDS011;57064;52.046;4.800;2022-11-21T14:19:51;10.85;;;4.20;;
69789;SDS011;57064;52.046;4.800;2022-11-21T14:22:28;7.28;;;3.72;;
69789;SDS011;57064;52.046;4.800;2022-11-21T14:25:00;9.35;;;4.18;;
69789;SDS011;57064;52.046;4.800;2022-11-21T14:27:37;10.63;;;3.63;;
69789;SDS011;57064;52.046;4.800;2022-11-21T14:30:05;9.48;;;3.85;;
69789;SDS011;57064;52.046;4.800;2022-11-21T14:32:49;5.95;;;3.58;;
69789;SDS011;57064;52.046;4.800;2022-11-21T14:35:19;6.60;;;2.75;;
69789;SDS011;57064;52.046;4.800;2022-11-21T14:37:46;14.50;;;3.93;;
69789;SDS011;57064;52.046;4.800;2022-11-21T14:40:23;11.93;;;3.72;;
69789;SDS011;57064;52.046;4.800;2022-11-21T14:42:49;7.53;;;3.65;;
69789;SDS011;57064;52.046;4.800;2022-11-21T14:45:20;8.88;;;4.20;;
69789;SDS011;57064;52.046;4.800;2022-11-21T14:47:51;11.73;;;5.35;;
69789;SDS011;57064;52.046;4.800;2022-11-21T14:50:22;22.65;;;8.73;;
69789;SDS011;57064;52.046;4.800;2022-11-21T14:52:52;10.00;;;4.65;;
69789;SDS011;57064;52.046;4.800;2022-11-21T14:55:26;12.93;;;6.00;;
69789;SDS011;57064;52.046;4.800;2022-11-21T14:57:54;10.48;;;3.92;;
69789;SDS011;57064;52.046;4.800;2022-11-21T15:00:23;13.18;;;4.53;;
69789;SDS011;57064;52.046;4.800;2022-11-21T15:02:55;8.55;;;2.97;;
69789;SDS011;57064;52.046;4.800;2022-11-21T15:05:29;13.43;;;4.53;;
69789;SDS011;57064;52.046;4.800;2022-11-21T15:07:57;6.72;;;3.05;;
69789;SDS011;57064;52.046;4.800;2022-11-21T15:10:27;9.77;;;4.35;;
69789;SDS011;57064;52.046;4.800;2022-11-21T15:15:42;10.27;;;3.40;;
69789;SDS011;57064;52.046;4.800;2022-11-21T15:20:46;10.88;;;3.70;;
69789;SDS011;57064;52.046;4.800;2022-11-21T15:23:26;10.80;;;3.65;;
69789;SDS011;57064;52.046;4.800;2022-11-21T15:25:54;10.07;;;3.85;;
69789;SDS011;57064;52.046;4.800;2022-11-21T15:28:21;8.82;;;3.53;;
69789;SDS011;57064;52.046;4.800;2022-11-21T15:30:49;9.02;;;3.40;;
69789;SDS011;57064;52.046;4.800;2022-11-21T15:33:53;10.13;;;3.15;;
69789;SDS011;57064;52.046;4.800;2022-11-21T15:36:30;9.70;;;3.20;;
69789;SDS011;57064;52.046;4.800;2022-11-21T15:39:11;12.02;;;3.83;;
69789;SDS011;57064;52.046;4.800;2022-11-21T15:41:45;11.73;;;4.70;;
69789;SDS011;57064;52.046;4.800;2022-11-21T15:46:38;11.43;;;4.70;;
69789;SDS011;57064;52.046;4.800;2022-11-21T15:49:11;10.38;;;4.80;;
69789;SDS011;57064;52.046;4.800;2022-11-21T15:51:39;11.50;;;4.70;;
69789;SDS011;57064;52.046;4.800;2022-11-21T15:54:06;11.18;;;3.70;;
69789;SDS011;57064;52.046;4.800;2022-11-21T15:56:36;7.50;;;3.88;;
69789;SDS011;57064;52.046;4.800;2022-11-21T15:59:04;5.78;;;3.42;;
69789;SDS011;57064;52.046;4.800;2022-11-21T16:01:30;10.25;;;4.65;;
69789;SDS011;57064;52.046;4.800;2022-11-21T16:04:15;7.28;;;2.95;;
69789;SDS011;57064;52.046;4.800;2022-11-21T16:06:41;9.18;;;3.40;;
69789;SDS011;57064;52.046;4.800;2022-11-21T16:09:07;9.65;;;3.17;;
69789;SDS011;57064;52.046;4.800;2022-11-21T16:11:34;10.23;;;4.32;;
69789;SDS011;57064;52.046;4.800;2022-11-21T16:14:01;23.08;;;8.02;;
69789;SDS011;57064;52.046;4.800;2022-11-21T16:16:30;10.35;;;4.35;;
69789;SDS011;57064;52.046;4.800;2022-11-21T16:19:06;15.40;;;5.15;;
69789;SDS011;57064;52.046;4.800;2022-11-21T16:21:34;9.32;;;4.22;;
69789;SDS011;57064;52.046;4.800;2022-11-21T16:24:00;9.90;;;4.22;;
69789;SDS011;57064;52.046;4.800;2022-11-21T16:26:27;13.13;;;4.70;;
69789;SDS011;57064;52.046;4.800;2022-11-21T16:28:53;14.02;;;4.60;;
69789;SDS011;57064;52.046;4.800;2022-11-21T16:31:21;10.32;;;4.00;;
69789;SDS011;57064;52.046;4.800;2022-11-21T16:33:48;8.82;;;3.90;;
69789;SDS011;57064;52.046;4.800;2022-11-21T16:36:24;9.00;;;4.50;;
69789;SDS011;57064;52.046;4.800;2022-11-21T16:38:51;14.68;;;5.70;;
69789;SDS011;57064;52.046;4.800;2022-11-21T16:41:18;44.80;;;13.00;;
69789;SDS011;57064;52.046;4.800;2022-11-21T16:43:47;10.70;;;5.22;;